Terminal Aerodrome Forecast
Issued by NWS Sioux Falls, SD

Home | Current Version | Previous Version | Graphics & Text | Print | Product List | Glossary On
Versions: 1 2 3 4 5 6 7 8 9 10 11 12 13 14 15 16 17 18 19 20 21 22 23 24 25 26 27
000
FTUS43 KFSD 042322
TAFSUX
TAF
KSUX 042322Z 0500/0524 17010KT P6SM FEW040 BKN250
     FM050200 14007KT P6SM SCT250
     FM051000 13007KT P6SM SCT080 WS008/19040KT
     FM051300 16010KT P6SM SCT080
     FM051600 17014G21KT P6SM FEW080
     FM052000 17018G26KT P6SM FEW040 SCT080=

USA.gov is the U.S. government's official web portal to all federal, state and local government web resources and services.